Time;durP1;ratioP1;P1;durP2;ratioP2;P2;SDS_P1;SDS_P2;PMS_P1;PMS_P2;Temp;Humidity;BMP_temperature;BMP_pressure;BME280_temperature;BME280_humidity;BME280_pressure;Samples;Min_cycle;Max_cycle;Signal;HPM_P1;HPM_P2
2024/01/11 00:00:31;;;;;;;39.63;14.85;;;-8.60;99.90;;;-7.03;100.00;102452.56;4950323;28;20040;-76
2024/01/11 00:02:56;;;;;;;39.22;15.00;;;-8.60;99.90;;;-7.07;100.00;102450.94;4966625;28;20096;-77
2024/01/11 00:05:22;;;;;;;29.13;13.30;;;-8.70;99.90;;;-7.24;100.00;102464.84;4949527;29;20134;-77
2024/01/11 00:07:48;;;;;;;30.73;12.57;;;-8.70;99.90;;;-7.27;100.00;102464.94;4963905;28;20039;-77
2024/01/11 00:10:15;;;;;;;33.85;13.60;;;-8.70;99.90;;;-7.24;100.00;102460.41;4940189;28;20136;-77
2024/01/11 00:12:41;;;;;;;31.73;13.25;;;-8.60;99.90;;;-7.28;100.00;102463.22;4949376;29;20715;-76
2024/01/11 00:15:07;;;;;;;28.83;10.88;;;-8.60;99.90;;;-7.24;100.00;102475.44;4949382;28;20031;-77
2024/01/11 00:17:33;;;;;;;27.90;10.20;;;-8.60;99.90;;;-7.26;100.00;102472.00;4949242;29;20369;-76
2024/01/11 00:19:59;;;;;;;32.10;13.70;;;-8.50;99.90;;;-7.17;100.00;102458.38;4951831;28;20082;-77
2024/01/11 00:22:25;;;;;;;35.17;14.27;;;-8.50;99.90;;;-7.01;100.00;102461.34;4952328;28;20047;-76
2024/01/11 00:24:50;;;;;;;33.67;12.80;;;-8.60;99.90;;;-6.82;100.00;102453.56;4950677;28;20082;-76
2024/01/11 00:27:16;;;;;;;30.75;13.75;;;-8.70;99.90;;;-6.98;100.00;102442.66;4961971;28;20380;-77
2024/01/11 00:29:42;;;;;;;33.53;14.18;;;-8.70;99.90;;;-7.00;100.00;102446.28;4949713;29;20032;-76
2024/01/11 00:32:07;;;;;;;27.88;12.88;;;-8.70;99.90;;;-6.86;100.00;102443.09;4951602;28;20061;-77
2024/01/11 00:34:33;;;;;;;35.95;13.35;;;-8.70;99.90;;;-6.71;100.00;102415.97;4949205;29;20090;-77
2024/01/11 00:36:59;;;;;;;34.58;13.02;;;-8.80;99.90;;;-6.54;100.00;102422.38;4949496;28;20058;-77
2024/01/11 00:39:24;;;;;;;31.27;12.57;;;-8.90;99.90;;;-6.39;100.00;102426.19;4949444;29;20047;-77
2024/01/11 00:41:51;;;;;;;35.10;14.10;;;-9.10;99.90;;;-6.38;100.00;102422.63;4950821;29;20035;-77
2024/01/11 00:44:16;;;;;;;34.38;13.45;;;-9.20;99.90;;;-6.46;100.00;102420.31;4950556;28;20046;-77
2024/01/11 00:46:42;;;;;;;32.97;12.95;;;-9.30;99.90;;;-6.71;100.00;102405.34;4950800;28;20039;-77
2024/01/11 00:49:08;;;;;;;32.20;13.38;;;-9.40;99.90;;;-6.77;100.00;102410.88;4965627;28;20027;-77
2024/01/11 00:51:33;;;;;;;34.13;13.43;;;-9.50;99.90;;;-6.80;100.00;102411.88;4950624;29;20522;-77
2024/01/11 00:53:59;;;;;;;42.50;14.52;;;-9.50;99.90;;;-7.10;100.00;102430.72;4948611;28;20074;-77
2024/01/11 00:56:26;;;;;;;36.50;13.38;;;-9.60;99.90;;;-7.33;100.00;102444.81;4949889;28;20041;-77
2024/01/11 00:58:52;;;;;;;30.38;12.32;;;-9.50;99.90;;;-7.43;100.00;102444.28;4950766;28;20043;-77
2024/01/11 01:01:18;;;;;;;35.45;14.27;;;-9.30;99.90;;;-7.41;100.00;102438.94;4949620;28;20095;-77
2024/01/11 01:03:44;;;;;;;32.05;13.15;;;-9.30;99.90;;;-7.62;100.00;102445.88;4942768;28;20039;-77
2024/01/11 01:06:09;;;;;;;32.25;12.77;;;-9.30;99.90;;;-7.57;100.00;102449.22;4950205;28;20487;-76
2024/01/11 01:08:35;;;;;;;32.90;12.43;;;-9.20;99.90;;;-7.29;100.00;102441.16;4959996;28;20399;-77
2024/01/11 01:11:01;;;;;;;34.83;13.18;;;-9.20;99.90;;;-7.18;100.00;102424.81;4951398;28;20379;-77
2024/01/11 01:13:27;;;;;;;30.70;12.25;;;-9.20;99.90;;;-7.14;100.00;102444.16;4954223;28;20046;-77
2024/01/11 01:15:52;;;;;;;36.72;13.85;;;-9.20;99.90;;;-7.03;100.00;102433.13;4949058;28;20084;-77
2024/01/11 01:18:18;;;;;;;35.88;14.15;;;-9.30;99.90;;;-6.83;100.00;102417.31;4953205;29;20035;-77
2024/01/11 01:20:44;;;;;;;32.42;12.65;;;-9.40;99.90;;;-6.89;100.00;102406.94;4953560;28;20036;-77
2024/01/11 01:23:09;;;;;;;34.10;13.23;;;-9.50;99.90;;;-6.84;100.00;102401.44;4949218;29;20054;-77
2024/01/11 01:25:35;;;;;;;36.13;13.93;;;-9.50;99.90;;;-7.03;100.00;102410.09;4953853;28;20149;-76
2024/01/11 01:28:01;;;;;;;36.05;13.18;;;-9.40;99.90;;;-6.99;100.00;102413.50;4952749;28;20086;-77
2024/01/11 01:30:29;;;;;;;38.13;13.05;;;-9.40;99.90;;;-6.77;100.00;102415.34;4952827;28;20505;-77
2024/01/11 01:32:56;;;;;;;32.45;12.55;;;-9.50;99.90;;;-6.80;100.00;102411.88;4946105;29;20039;-77
2024/01/11 01:35:21;;;;;;;34.25;13.95;;;-9.50;99.90;;;-6.81;100.00;102401.31;4950984;29;20395;-77
2024/01/11 01:37:47;;;;;;;39.13;14.73;;;-9.60;99.90;;;-7.09;100.00;102400.59;4952953;28;20109;-76
2024/01/11 01:40:13;;;;;;;29.75;11.77;;;-9.40;99.90;;;-7.08;100.00;102431.53;4951330;28;20035;-76
2024/01/11 01:42:44;;;;;;;37.47;13.77;;;-9.40;99.90;;;-7.12;100.00;102439.63;4953324;28;20046;-75
2024/01/11 01:45:10;;;;;;;40.65;13.15;;;-9.30;99.90;;;-7.28;100.00;102439.34;4952496;28;20039;-75
2024/01/11 01:47:39;;;;;;;37.20;13.77;;;-9.10;99.90;;;-7.09;100.00;102431.56;4953964;28;20035;-76
2024/01/11 01:50:07;;;;;;;37.17;14.10;;;-9.10;99.90;;;-6.66;100.00;102413.97;4944097;29;20180;-76
2024/01/11 01:52:34;;;;;;;26.90;11.80;;;-9.20;99.90;;;-6.61;100.00;102416.47;4968127;28;20039;-76
2024/01/11 01:55:02;;;;;;;31.92;12.88;;;-9.30;99.90;;;-6.65;100.00;102439.63;4953730;28;20043;-76
2024/01/11 01:57:32;;;;;;;35.08;13.13;;;-9.30;99.90;;;-6.78;100.00;102435.69;4952895;28;20099;-76
2024/01/11 01:59:58;;;;;;;30.92;11.80;;;-9.40;99.90;;;-6.67;100.00;102432.63;4967977;28;20082;-76
2024/01/11 02:02:26;;;;;;;34.45;12.98;;;-9.50;99.90;;;-6.73;100.00;102428.44;4938060;28;20559;-76
2024/01/11 02:04:52;;;;;;;31.38;12.00;;;-9.60;99.90;;;-6.75;100.00;102427.63;4950921;29;20043;-76
2024/01/11 02:07:18;;;;;;;31.40;12.55;;;-9.70;99.90;;;-6.87;100.00;102415.72;4951644;29;20054;-76
2024/01/11 02:09:46;;;;;;;29.73;11.23;;;-9.70;99.90;;;-6.94;100.00;102422.16;4953441;28;20031;-76
2024/01/11 02:12:13;;;;;;;35.00;12.10;;;-9.80;99.90;;;-6.92;100.00;102415.00;4952609;28;20040;-76
2024/01/11 02:14:40;;;;;;;31.40;11.93;;;-9.90;99.90;;;-6.98;100.00;102417.88;4952820;28;20050;-76
2024/01/11 02:17:06;;;;;;;30.73;11.63;;;-9.80;99.90;;;-6.85;100.00;102423.59;4952717;28;20035;-75
2024/01/11 02:19:33;;;;;;;32.22;11.70;;;-9.70;99.90;;;-6.85;100.00;102408.53;4951529;28;20051;-76
2024/01/11 02:22:15;;;;;;;;;;;-9.70;99.90;;;-6.77;100.00;102397.59;4952549;28;20045;-75
2024/01/11 02:24:40;;;;;;;24.33;10.00;;;-9.60;99.90;;;-6.77;100.00;102410.03;4952090;28;20360;-76
2024/01/11 02:27:06;;;;;;;27.25;11.80;;;-9.50;99.90;;;-6.81;100.00;102420.75;4952873;28;20039;-76
2024/01/11 02:29:32;;;;;;;30.98;12.13;;;-9.50;99.90;;;-7.26;100.00;102424.25;4952721;28;20034;-76
2024/01/11 02:32:02;;;;;;;38.00;12.40;;;-9.50;99.90;;;-7.16;100.00;102424.75;4952189;29;20050;-76
2024/01/11 02:34:29;;;;;;;33.15;11.50;;;-9.50;99.90;;;-6.88;100.00;102419.28;4938481;29;20341;-76
2024/01/11 02:36:55;;;;;;;33.60;12.43;;;-9.60;99.90;;;-6.82;100.00;102419.03;4952623;28;20031;-76
2024/01/11 02:39:24;;;;;;;28.23;11.15;;;-9.60;99.90;;;-6.78;100.00;102398.53;4951218;28;20705;-76
2024/01/11 02:41:51;;;;;;;31.83;13.13;;;-9.60;99.90;;;-6.95;100.00;102389.44;4967156;28;20053;-76
2024/01/11 02:44:17;;;;;;;32.28;12.23;;;-9.50;99.90;;;-7.02;100.00;102395.06;4951464;28;20502;-76
2024/01/11 02:46:43;;;;;;;33.45;12.02;;;-9.50;99.90;;;-6.80;100.00;102397.72;4935626;28;20040;-76
2024/01/11 02:49:09;;;;;;;28.63;11.60;;;-9.60;99.90;;;-6.86;100.00;102406.81;4951090;29;20440;-76
2024/01/11 02:51:36;;;;;;;32.25;12.00;;;-9.50;99.90;;;-7.13;100.00;102414.03;4966343;28;20043;-76
2024/01/11 02:54:02;;;;;;;35.85;12.93;;;-9.50;99.90;;;-6.85;100.00;102400.59;4951320;28;20101;-76
2024/01/11 02:56:27;;;;;;;33.20;13.45;;;-9.60;99.90;;;-6.77;100.00;102392.28;4951963;28;20391;-76
2024/01/11 02:58:53;;;;;;;30.80;12.70;;;-9.50;99.90;;;-6.74;100.00;102378.03;4950957;28;20049;-76
2024/01/11 03:01:19;;;;;;;33.13;12.40;;;-9.50;99.90;;;-6.68;100.00;102388.41;4946882;28;20040;-76
2024/01/11 03:03:45;;;;;;;34.55;12.40;;;-9.50;99.90;;;-6.69;100.00;102373.41;4952078;28;20395;-75
2024/01/11 03:06:10;;;;;;;33.33;11.63;;;-9.50;99.90;;;-6.72;100.00;102377.06;4966827;28;20050;-76
2024/01/11 03:08:36;;;;;;;37.97;13.10;;;-9.40;99.90;;;-7.39;100.00;102398.19;4950936;28;20035;-75
2024/01/11 03:11:02;;;;;;;28.08;11.23;;;-9.40;99.90;;;-7.56;100.00;102401.47;4951957;28;20039;-75
2024/01/11 03:13:27;;;;;;;31.38;12.18;;;-9.30;99.90;;;-7.51;100.00;102404.81;4951141;28;20046;-76
2024/01/11 03:15:53;;;;;;;35.85;12.88;;;-9.20;99.90;;;-7.16;100.00;102399.13;4950300;28;20070;-76
2024/01/11 03:18:19;;;;;;;31.98;12.52;;;-9.20;99.90;;;-7.04;100.00;102391.59;4951710;28;20094;-76
2024/01/11 03:20:45;;;;;;;34.65;12.02;;;-9.30;99.90;;;-7.23;100.00;102373.72;4950787;28;20506;-75
2024/01/11 03:23:10;;;;;;;29.95;12.50;;;-9.40;99.90;;;-6.94;100.00;102388.53;4948841;28;20050;-75
2024/01/11 03:25:36;;;;;;;34.92;12.73;;;-9.50;99.90;;;-6.97;100.00;102386.00;4951692;28;20042;-75
2024/01/11 03:28:02;;;;;;;37.05;14.13;;;-9.60;99.90;;;-6.86;100.00;102395.31;4951585;28;20430;-76
2024/01/11 03:30:28;;;;;;;39.38;12.60;;;-9.60;99.90;;;-6.99;100.00;102371.03;4951837;28;20090;-74
2024/01/11 03:32:54;;;;;;;30.73;11.93;;;-9.70;99.90;;;-6.94;100.00;102388.53;4966089;28;20035;-75
2024/01/11 03:35:20;;;;;;;29.40;12.25;;;-9.70;99.90;;;-7.03;100.00;102388.03;4950335;29;20098;-75
2024/01/11 03:37:46;;;;;;;28.27;11.52;;;-9.70;99.90;;;-7.01;100.00;102391.47;4950519;28;20035;-75
2024/01/11 03:40:12;;;;;;;28.67;11.20;;;-9.70;99.90;;;-7.34;100.00;102407.75;4948549;28;20094;-75
2024/01/11 03:42:38;;;;;;;31.10;11.27;;;-9.60;99.90;;;-7.54;100.00;102404.03;4950839;28;20050;-75
2024/01/11 03:45:04;;;;;;;32.33;11.57;;;-9.40;99.90;;;-7.44;100.00;102421.34;4951610;28;20395;-76
2024/01/11 03:47:30;;;;;;;34.10;13.07;;;-9.30;99.90;;;-7.35;100.00;102433.41;4951409;28;20130;-76
2024/01/11 03:49:56;;;;;;;30.67;12.50;;;-9.20;99.90;;;-7.58;100.00;102424.47;4950423;29;20401;-76
2024/01/11 03:52:22;;;;;;;37.20;13.32;;;-9.20;99.90;;;-7.41;100.00;102421.25;4966783;28;20122;-75
2024/01/11 03:54:48;;;;;;;32.90;13.10;;;-9.20;99.90;;;-7.38;100.00;102405.22;4950762;29;20071;-76
2024/01/11 03:57:15;;;;;;;32.80;12.07;;;-9.20;99.90;;;-7.09;100.00;102405.03;4949506;28;20081;-75
2024/01/11 03:59:41;;;;;;;32.25;11.35;;;-9.30;99.90;;;-6.85;100.00;102399.69;4950574;28;20094;-75
2024/01/11 04:02:07;;;;;;;28.92;12.07;;;-9.40;99.90;;;-6.80;100.00;102406.56;4950613;28;20028;-75
2024/01/11 04:04:33;;;;;;;30.00;11.32;;;-9.50;99.90;;;-7.06;100.00;102410.22;4950999;29;20447;-75
2024/01/11 04:06:59;;;;;;;31.08;12.13;;;-9.60;99.90;;;-7.03;100.00;102422.50;4951081;29;20405;-74
2024/01/11 04:09:25;;;;;;;36.42;13.43;;;-9.60;99.90;;;-7.13;100.00;102419.34;4951475;28;20035;-75
2024/01/11 04:11:51;;;;;;;32.22;11.90;;;-9.50;99.90;;;-7.00;100.00;102411.78;4948318;29;20130;-75
2024/01/11 04:14:17;;;;;;;33.55;12.23;;;-9.50;99.90;;;-7.09;100.00;102397.06;4951621;28;20364;-75
2024/01/11 04:16:43;;;;;;;29.15;11.38;;;-9.60;99.90;;;-7.16;100.00;102398.22;4951519;28;20047;-75
2024/01/11 04:19:10;;;;;;;33.92;12.30;;;-9.50;99.90;;;-7.04;100.00;102396.91;4950905;28;20053;-75
2024/01/11 04:21:38;;;;;;;30.08;12.55;;;-9.50;99.90;;;-6.98;100.00;102402.84;4961574;28;20050;-75
2024/01/11 04:24:08;;;;;;;30.73;12.20;;;-9.60;99.90;;;-6.88;100.00;102399.81;4966115;28;20039;-77
2024/01/11 04:26:34;;;;;;;27.38;10.85;;;-9.60;99.90;;;-7.03;100.00;102378.25;4963004;28;20044;-75
2024/01/11 04:29:00;;;;;;;30.67;12.43;;;-9.60;99.90;;;-6.91;100.00;102376.91;4950269;29;20070;-77
2024/01/11 04:31:26;;;;;;;32.15;11.85;;;-9.50;99.90;;;-7.07;100.00;102387.25;4950599;28;20039;-77
2024/01/11 04:33:52;;;;;;;28.58;10.75;;;-9.50;99.90;;;-7.05;100.00;102397.81;4950423;28;20490;-77
2024/01/11 04:36:18;;;;;;;31.15;12.25;;;-9.50;99.90;;;-7.00;100.00;102394.09;4951059;28;20035;-76
2024/01/11 04:38:46;;;;;;;29.42;12.05;;;-9.70;99.90;;;-7.09;100.00;102389.09;4950759;28;20035;-76
2024/01/11 04:41:14;;;;;;;29.70;12.27;;;-9.80;99.90;;;-7.22;100.00;102389.59;4951159;28;20039;-75
2024/01/11 04:43:42;;;;;;;31.90;11.55;;;-9.70;99.90;;;-7.00;100.00;102393.19;4934229;29;20038;-75
2024/01/11 04:46:19;;;;;;;31.80;12.02;;;-9.70;99.90;;;-6.97;100.00;102370.06;4952766;28;20042;-75
2024/01/11 04:48:46;;;;;;;30.40;10.55;;;-9.70;99.90;;;-6.97;100.00;102388.66;4954578;28;20043;-75
2024/01/11 04:51:13;;;;;;;26.65;10.75;;;-9.70;99.90;;;-6.96;100.00;102394.81;4954627;28;20506;-76
2024/01/11 04:53:40;;;;;;;31.52;11.43;;;-9.60;99.90;;;-6.94;100.00;102398.25;4953407;28;20055;-75
2024/01/11 04:56:11;;;;;;;30.58;11.88;;;-9.70;99.90;;;-7.03;100.00;102403.94;4954540;28;20065;-75
2024/01/11 04:58:41;;;;;;;28.73;10.73;;;-9.70;99.90;;;-7.21;100.00;102419.63;4968367;28;20542;-75
2024/01/11 05:01:07;;;;;;;30.17;11.88;;;-9.70;99.90;;;-7.45;100.00;102430.22;4954181;28;20035;-75
2024/01/11 05:03:33;;;;;;;33.42;12.43;;;-9.70;99.90;;;-7.34;100.00;102444.88;4954464;28;20035;-75
2024/01/11 05:05:59;;;;;;;29.67;10.55;;;-9.60;99.90;;;-7.39;100.00;102429.13;4969368;28;20462;-77
2024/01/11 05:08:27;;;;;;;30.30;11.30;;;-9.60;99.90;;;-7.46;100.00;102430.28;4954521;28;20094;-75
2024/01/11 05:10:53;;;;;;;32.85;12.70;;;-9.70;99.90;;;-7.83;100.00;102449.19;4953955;28;20106;-75
2024/01/11 05:13:19;;;;;;;27.00;10.95;;;-9.60;99.90;;;-7.80;100.00;102446.47;4953979;28;20051;-75
2024/01/11 05:15:45;;;;;;;28.95;12.05;;;-9.40;99.90;;;-7.74;100.00;102445.38;4953197;29;20134;-75
2024/01/11 05:18:12;;;;;;;29.88;10.57;;;-9.30;99.90;;;-7.76;100.00;102457.81;4954071;28;20394;-75
2024/01/11 05:20:38;;;;;;;26.98;11.25;;;-9.30;99.90;;;-7.76;100.00;102457.81;4952980;28;20063;-75
2024/01/11 05:23:04;;;;;;;33.55;12.45;;;-9.20;99.90;;;-7.70;100.00;102460.25;4953618;28;20048;-75
2024/01/11 05:25:33;;;;;;;24.55;10.05;;;-9.30;99.90;;;-7.75;100.00;102461.34;4960570;28;20437;-76
2024/01/11 05:28:00;;;;;;;28.00;10.85;;;-9.20;99.90;;;-7.57;100.00;102446.56;4965429;28;20039;-75
2024/01/11 05:30:26;;;;;;;30.73;12.38;;;-9.20;99.90;;;-7.61;100.00;102431.69;4952938;28;20125;-75
2024/01/11 05:32:51;;;;;;;28.48;10.80;;;-9.20;99.90;;;-7.08;100.00;102418.25;4953298;28;20133;-76
2024/01/11 05:35:17;;;;;;;30.75;11.30;;;-9.30;99.90;;;-6.93;100.00;102431.84;4954125;28;20388;-76
2024/01/11 05:37:43;;;;;;;30.50;10.85;;;-9.50;99.90;;;-6.95;100.00;102418.66;4953819;28;20027;-77
2024/01/11 05:40:09;;;;;;;29.95;11.52;;;-9.60;99.90;;;-6.84;100.00;102415.59;4953642;28;20368;-76
2024/01/11 05:42:34;;;;;;;30.15;11.57;;;-9.60;99.90;;;-6.87;100.00;102420.13;4953095;28;20151;-76
2024/01/11 05:45:00;;;;;;;29.52;10.88;;;-9.60;99.90;;;-6.87;100.00;102412.16;4953501;28;20039;-78
2024/01/11 05:47:26;;;;;;;32.55;11.65;;;-9.60;99.90;;;-6.85;100.00;102408.53;4967749;28;20376;-76
2024/01/11 05:49:51;;;;;;;31.80;11.90;;;-9.60;99.90;;;-6.86;100.00;102414.78;4952485;29;20043;-75
2024/01/11 05:52:17;;;;;;;27.08;11.73;;;-9.50;99.90;;;-6.95;100.00;102401.84;4954395;29;20043;-77
2024/01/11 05:54:43;;;;;;;28.15;11.48;;;-9.50;99.90;;;-7.00;100.00;102411.78;4948064;29;20059;-75
2024/01/11 05:57:08;;;;;;;29.77;11.65;;;-9.50;99.90;;;-6.89;100.00;102432.59;4953210;28;20054;-75
2024/01/11 05:59:34;;;;;;;29.98;12.23;;;-9.60;99.90;;;-6.83;100.00;102433.25;4953677;28;20046;-74
2024/01/11 06:02:01;;;;;;;28.60;11.07;;;-9.60;99.90;;;-6.88;100.00;102408.66;4951013;28;20031;-75
2024/01/11 06:04:27;;;;;;;31.75;11.85;;;-9.60;99.90;;;-6.90;100.00;102399.03;4953456;28;20125;-75
2024/01/11 06:06:53;;;;;;;31.02;12.73;;;-9.40;99.90;;;-6.89;100.00;102403.41;4952563;28;20523;-75
2024/01/11 06:09:18;;;;;;;35.08;12.70;;;-9.30;99.90;;;-7.03;100.00;102409.25;4952838;28;20130;-75
2024/01/11 06:11:44;;;;;;;32.70;12.13;;;-9.20;99.90;;;-6.85;100.00;102419.16;4953117;28;20032;-76
2024/01/11 06:14:10;;;;;;;42.25;12.60;;;-9.30;99.90;;;-7.09;100.00;102426.25;4953367;28;20471;-77
2024/01/11 06:16:37;;;;;;;32.00;12.25;;;-9.30;99.90;;;-7.22;100.00;102426.72;4953120;28;20507;-76
2024/01/11 06:19:03;;;;;;;31.65;13.02;;;-9.10;99.90;;;-7.52;100.00;102423.41;4953572;28;20042;-76
2024/01/11 06:21:28;;;;;;;33.10;12.95;;;-9.10;99.90;;;-7.09;100.00;102424.47;4967848;28;20158;-76
2024/01/11 06:23:54;;;;;;;32.05;12.60;;;-9.00;99.90;;;-6.71;100.00;102401.81;4953058;28;20027;-76
2024/01/11 06:26:20;;;;;;;30.15;12.52;;;-9.20;99.90;;;-6.70;100.00;102395.56;4952091;28;20036;-76
2024/01/11 06:28:45;;;;;;;33.33;12.52;;;-9.20;99.90;;;-6.63;100.00;102401.50;4950943;28;20518;-76
2024/01/11 06:31:12;;;;;;;27.95;11.80;;;-9.20;99.90;;;-6.67;100.00;102390.13;4951625;28;20039;-77
2024/01/11 06:33:37;;;;;;;35.35;11.65;;;-9.20;99.90;;;-6.74;100.00;102405.47;4952753;29;20047;-77
2024/01/11 06:36:07;;;;;;;29.30;11.88;;;-9.20;99.90;;;-6.66;100.00;102386.56;4953041;28;20118;-77
2024/01/11 06:38:33;;;;;;;31.23;11.10;;;-9.20;99.90;;;-6.75;100.00;102397.56;4967182;28;20055;-77
2024/01/11 06:40:59;;;;;;;29.35;12.38;;;-9.20;99.90;;;-6.69;100.00;102415.88;4953126;28;20027;-78
2024/01/11 06:43:25;;;;;;;30.75;11.25;;;-9.30;99.90;;;-6.73;100.00;102411.63;4951665;28;20031;-78
2024/01/11 06:45:50;;;;;;;35.88;11.82;;;-9.30;99.90;;;-6.77;100.00;102410.03;4941351;29;20038;-78
2024/01/11 06:48:16;;;;;;;30.70;11.35;;;-9.40;99.90;;;-6.77;100.00;102407.38;4952369;28;20059;-77
2024/01/11 06:50:42;;;;;;;29.92;12.68;;;-9.40;99.90;;;-6.87;100.00;102391.81;4951724;29;20486;-77
2024/01/11 06:53:08;;;;;;;29.42;11.82;;;-9.30;99.90;;;-6.77;100.00;102413.53;4939282;29;20126;-77
2024/01/11 06:55:33;;;;;;;34.45;12.30;;;-9.20;99.90;;;-6.74;100.00;102402.81;4951991;28;20498;-77
2024/01/11 06:57:59;;;;;;;29.77;12.00;;;-9.20;99.90;;;-6.69;100.00;102403.50;4951254;28;20060;-77
2024/01/11 07:00:25;;;;;;;31.70;11.48;;;-9.30;99.90;;;-6.76;100.00;102401.13;4946159;28;20035;-76
2024/01/11 07:02:53;;;;;;;34.00;13.00;;;-9.20;99.90;;;-6.63;100.00;102405.03;4948770;28;20047;-77
2024/01/11 07:05:19;;;;;;;34.30;12.93;;;-9.10;99.90;;;-6.95;100.00;102404.50;4951623;28;20058;-76
2024/01/11 07:07:45;;;;;;;35.53;12.13;;;-9.20;99.90;;;-7.00;100.00;102415.31;4951403;28;20070;-76
2024/01/11 07:10:12;;;;;;;33.35;12.45;;;-9.20;99.90;;;-6.85;100.00;102419.16;4952182;28;20483;-78
2024/01/11 07:12:38;;;;;;;33.30;11.68;;;-9.20;99.90;;;-7.18;100.00;102440.72;4952129;28;20035;-77
2024/01/11 07:15:05;;;;;;;29.52;12.00;;;-9.10;99.90;;;-7.15;100.00;102431.81;4939999;28;20054;-78
2024/01/11 07:17:30;;;;;;;37.80;11.32;;;-9.00;99.90;;;-7.05;100.00;102462.38;4952505;28;20114;-76
2024/01/11 07:19:56;;;;;;;36.10;12.82;;;-8.80;99.90;;;-7.17;100.00;102465.50;4950911;29;20043;-78
2024/01/11 07:22:22;;;;;;;24.58;10.55;;;-8.70;99.90;;;-7.33;100.00;102471.34;4951811;28;20050;-78
2024/01/11 07:24:48;;;;;;;29.50;11.88;;;-8.60;99.90;;;-7.09;100.00;102466.94;4952403;28;20081;-77
2024/01/11 07:27:13;;;;;;;37.13;14.93;;;-8.60;99.90;;;-6.97;100.00;102446.16;4952173;28;20051;-76
2024/01/11 07:29:39;;;;;;;36.25;13.73;;;-8.60;99.90;;;-7.01;100.00;102444.53;4951872;28;20047;-77
2024/01/11 07:32:05;;;;;;;42.38;15.40;;;-8.60;99.90;;;-6.91;100.00;102466.31;4951334;28;20090;-77
2024/01/11 07:34:32;;;;;;;35.58;14.18;;;-8.60;99.90;;;-6.63;100.00;102460.81;4950863;29;20054;-77
2024/01/11 07:36:58;;;;;;;35.47;14.18;;;-8.70;99.90;;;-6.52;100.00;102457.69;4966888;28;20063;-77
2024/01/11 07:39:24;;;;;;;33.00;14.32;;;-8.70;99.90;;;-6.96;100.00;102463.81;4952091;28;20053;-78
2024/01/11 07:41:50;;;;;;;32.00;13.85;;;-8.60;99.90;;;-6.91;100.00;102485.72;4951871;28;20086;-77
2024/01/11 07:44:16;;;;;;;34.45;12.07;;;-8.60;99.90;;;-6.75;100.00;102482.50;4951123;28;20043;-77
2024/01/11 07:46:43;;;;;;;40.28;15.20;;;-8.50;99.90;;;-6.96;100.00;102470.00;4951293;28;20061;-76
2024/01/11 07:49:10;;;;;;;36.30;13.90;;;-8.50;99.90;;;-7.13;100.00;102464.44;4951967;28;20039;-76
2024/01/11 07:51:35;;;;;;;45.35;16.55;;;-8.30;99.90;;;-6.27;100.00;102452.28;4949130;28;20031;-75
2024/01/11 07:54:02;;;;;;;39.50;14.07;;;-8.20;99.90;;;-6.08;100.00;102448.88;4952262;28;20403;-77
2024/01/11 07:56:29;;;;;;;42.08;13.60;;;-8.20;99.90;;;-5.61;100.00;102458.38;4952708;28;20035;-77
2024/01/11 07:58:55;;;;;;;39.30;15.07;;;-8.10;99.90;;;-5.79;100.00;102454.72;4965916;28;20035;-77
2024/01/11 08:01:20;;;;;;;36.70;13.55;;;-8.10;99.90;;;-5.49;100.00;102449.00;4950949;28;20034;-77
2024/01/11 08:03:47;;;;;;;46.08;15.43;;;-8.00;99.90;;;-5.51;100.00;102451.72;4949989;28;20039;-77
2024/01/11 08:06:13;;;;;;;36.05;13.05;;;-7.90;99.90;;;-5.31;100.00;102457.09;4950230;28;20100;-77
2024/01/11 08:08:40;;;;;;;36.75;14.40;;;-7.80;99.90;;;-5.17;100.00;102444.03;4947695;28;20170;-78
2024/01/11 08:11:12;;;;;;;36.08;13.65;;;-7.80;99.90;;;-5.18;100.00;102444.97;4965102;28;20152;-77
2024/01/11 08:13:38;;;;;;;39.95;15.40;;;-7.80;99.90;;;-5.11;100.00;102446.41;4949794;29;20039;-77
2024/01/11 08:16:04;;;;;;;39.13;14.98;;;-7.70;99.90;;;-5.15;100.00;102459.94;4951383;28;20043;-76
2024/01/11 08:18:33;;;;;;;35.30;14.77;;;-7.60;99.90;;;-5.14;100.00;102449.22;4950804;28;20106;-77
2024/01/11 08:20:59;;;;;;;42.25;15.05;;;-7.60;99.90;;;-4.96;100.00;102444.00;4955220;28;20305;-77
2024/01/11 08:23:24;;;;;;;39.35;13.95;;;-7.50;99.90;;;-5.23;100.00;102460.28;4954534;28;20039;-77
2024/01/11 08:25:52;;;;;;;45.55;15.55;;;-7.40;99.90;;;-5.41;100.00;102468.16;4946769;29;20055;-77
2024/01/11 08:28:18;;;;;;;41.63;16.10;;;-7.40;99.90;;;-5.16;100.00;102466.22;4956033;28;20114;-77
2024/01/11 08:30:44;;;;;;;44.13;16.08;;;-7.30;99.90;;;-5.09;100.00;102479.16;4966030;28;20047;-77
2024/01/11 08:33:10;;;;;;;47.15;16.23;;;-7.20;99.90;;;-4.86;100.00;102466.59;4949415;29;20129;-77
2024/01/11 08:35:35;;;;;;;42.38;16.80;;;-7.10;99.90;;;-4.69;100.00;102444.47;4954586;28;20035;-77
2024/01/11 08:38:02;;;;;;;42.10;16.13;;;-7.00;99.90;;;-4.53;100.00;102449.09;4954749;28;20422;-77
2024/01/11 08:40:28;;;;;;;42.47;15.38;;;-7.00;99.90;;;-4.81;100.00;102447.75;4954303;28;20103;-77
2024/01/11 08:42:54;;;;;;;46.40;15.30;;;-6.90;99.90;;;-4.31;100.00;102451.56;4957008;28;20047;-77
2024/01/11 08:45:21;;;;;;;43.22;14.85;;;-6.80;99.90;;;-4.91;100.00;102466.81;4953826;29;20403;-77
2024/01/11 08:47:47;;;;;;;29.13;11.32;;;-6.80;99.90;;;-5.17;100.00;102486.63;4954044;28;20054;-77
2024/01/11 08:50:17;;;;;;;50.35;16.83;;;-6.80;99.90;;;-5.26;100.00;102497.69;4959241;28;20039;-77
2024/01/11 08:52:43;;;;;;;39.63;14.73;;;-6.70;99.90;;;-5.28;100.00;102502.22;4954507;28;20059;-77
2024/01/11 08:55:09;;;;;;;36.75;15.35;;;-6.60;99.90;;;-4.74;100.00;102483.78;4951578;29;20319;-78
2024/01/11 08:57:35;;;;;;;41.65;15.50;;;-6.50;99.90;;;-5.10;100.00;102473.91;4951722;28;20046;-79
2024/01/11 09:00:04;;;;;;;34.15;14.98;;;-6.50;99.90;;;-5.09;100.00;102486.28;4952355;28;20114;-78
2024/01/11 09:02:29;;;;;;;39.92;14.55;;;-6.40;99.90;;;-5.08;100.00;102485.34;4952352;28;20066;-79
2024/01/11 09:04:55;;;;;;;36.20;15.73;;;-6.40;99.90;;;-5.06;100.00;102484.31;4951295;28;20101;-79
2024/01/11 09:07:21;;;;;;;40.70;15.68;;;-6.40;99.90;;;-4.80;100.00;102468.09;4951697;28;20078;-78
2024/01/11 09:09:46;;;;;;;37.83;15.32;;;-6.30;99.90;;;-4.57;100.00;102456.34;4949970;28;20462;-79
2024/01/11 09:12:12;;;;;;;42.25;15.73;;;-6.20;99.90;;;-4.65;100.00;102461.19;4952572;28;20047;-80
2024/01/11 09:14:39;;;;;;;42.97;16.35;;;-6.00;99.90;;;-3.91;100.00;102468.25;4951256;28;20035;-80
2024/01/11 09:17:06;;;;;;;43.83;16.97;;;-5.80;99.90;;;-3.28;100.00;102462.41;4951621;28;20035;-79
2024/01/11 09:19:33;;;;;;;43.43;17.63;;;-5.40;99.90;;;-3.84;100.00;102465.28;4950882;28;20051;-79
2024/01/11 09:22:00;;;;;;;38.78;15.75;;;-5.40;99.90;;;-3.93;100.00;102477.28;4951911;28;20038;-80
2024/01/11 09:24:25;;;;;;;41.08;15.48;;;-5.40;99.90;;;-3.67;100.00;102488.44;4957643;28;20843;-80
2024/01/11 09:26:51;;;;;;;39.67;16.67;;;-5.30;99.90;;;-3.48;100.00;102499.00;4949035;29;20086;-81
2024/01/11 09:29:17;;;;;;;45.65;17.58;;;-5.20;99.90;;;-3.01;100.00;102500.16;4959785;28;20039;-80
2024/01/11 09:31:43;;;;;;;40.03;16.10;;;-5.10;99.90;;;-2.98;100.00;102486.63;4950420;28;20058;-81
2024/01/11 09:34:09;;;;;;;39.53;16.23;;;-4.90;99.90;;;-2.85;100.00;102492.16;4950738;28;20043;-79
2024/01/11 09:36:34;;;;;;;38.92;16.17;;;-4.90;99.90;;;-2.83;100.00;102492.06;4946878;29;20040;-80
2024/01/11 09:39:00;;;;;;;40.85;14.88;;;-4.80;99.90;;;-2.91;100.00;102485.34;4951665;28;20071;-83
2024/01/11 09:41:27;;;;;;;43.80;16.92;;;-4.70;99.90;;;-2.40;100.00;102471.00;4952315;29;20031;-82
2024/01/11 09:43:57;;;;;;;42.20;15.48;;;-4.60;99.90;;;-2.32;100.00;102462.53;4951592;28;20031;-84
2024/01/11 09:46:24;;;;;;;47.53;16.88;;;-4.60;99.90;;;-2.10;100.00;102467.50;4952615;28;20109;-82
2024/01/11 09:48:51;;;;;;;41.15;16.13;;;-4.40;99.90;;;-2.07;100.00;102451.28;4950561;28;20051;-84